sensor_id;sensor_type;location;lat;lon;timestamp;pressure;altitude;pressure_sealevel;temperature;humidity
42621;BME280;28252;53.336;-6.298;2023-05-07T00:00:04;100791.50;;;21.70;100.00
42621;BME280;28252;53.336;-6.298;2023-05-07T00:00:41;100788.78;;;21.70;100.00
42621;BME280;28252;53.336;-6.298;2023-05-07T00:01:15;100783.53;;;21.69;100.00
42621;BME280;28252;53.336;-6.298;2023-05-07T00:01:51;100795.25;;;21.69;100.00
42621;BME280;28252;53.336;-6.298;2023-05-07T00:02:27;100788.97;;;21.69;100.00
42621;BME280;28252;53.336;-6.298;2023-05-07T00:03:03;100793.72;;;21.67;100.00
42621;BME280;28252;53.336;-6.298;2023-05-07T00:03:36;100790.00;;;21.68;100.00
42621;BME280;28252;53.336;-6.298;2023-05-07T00:04:08;100782.06;;;21.66;100.00
42621;BME280;28252;53.336;-6.298;2023-05-07T00:04:41;100798.31;;;21.66;100.00
42621;BME280;28252;53.336;-6.298;2023-05-07T00:05:16;100792.88;;;21.66;100.00
42621;BME280;28252;53.336;-6.298;2023-05-07T00:05:52;100798.31;;;21.66;100.00
42621;BME280;28252;53.336;-6.298;2023-05-07T00:06:31;100791.19;;;21.65;100.00
42621;BME280;28252;53.336;-6.298;2023-05-07T00:07:09;100784.75;;;21.66;100.00
42621;BME280;28252;53.336;-6.298;2023-05-07T00:07:45;100792.22;;;21.64;100.00
42621;BME280;28252;53.336;-6.298;2023-05-07T00:08:20;100796.78;;;21.63;100.00
42621;BME280;28252;53.336;-6.298;2023-05-07T00:08:53;100802.22;;;21.63;100.00
42621;BME280;28252;53.336;-6.298;2023-05-07T00:09:29;100791.38;;;21.63;100.00
42621;BME280;28252;53.336;-6.298;2023-05-07T00:10:02;100792.41;;;21.62;100.00
42621;BME280;28252;53.336;-6.298;2023-05-07T00:10:33;100790.53;;;21.63;100.00
42621;BME280;28252;53.336;-6.298;2023-05-07T00:11:11;100792.41;;;21.62;100.00
42621;BME280;28252;53.336;-6.298;2023-05-07T00:11:48;100793.25;;;21.63;100.00
42621;BME280;28252;53.336;-6.298;2023-05-07T00:12:21;100793.25;;;21.63;100.00
42621;BME280;28252;53.336;-6.298;2023-05-07T00:12:52;100783.41;;;21.62;100.00
42621;BME280;28252;53.336;-6.298;2023-05-07T00:13:25;100788.84;;;21.62;100.00
42621;BME280;28252;53.336;-6.298;2023-05-07T00:14:00;100786.13;;;21.62;100.00
42621;BME280;28252;53.336;-6.298;2023-05-07T00:14:34;100787.16;;;21.61;100.00
42621;BME280;28252;53.336;-6.298;2023-05-07T00:15:07;100783.59;;;21.60;100.00
42621;BME280;28252;53.336;-6.298;2023-05-07T00:15:44;100785.47;;;21.60;100.00
42621;BME280;28252;53.336;-6.298;2023-05-07T00:16:19;100781.91;;;21.59;100.00
42621;BME280;28252;53.336;-6.298;2023-05-07T00:16:52;100785.47;;;21.60;100.00
42621;BME280;28252;53.336;-6.298;2023-05-07T00:17:26;100783.75;;;21.59;100.00
42621;BME280;28252;53.336;-6.298;2023-05-07T00:17:59;100782.09;;;21.58;100.00
42621;BME280;28252;53.336;-6.298;2023-05-07T00:18:32;100787.50;;;21.58;100.00
42621;BME280;28252;53.336;-6.298;2023-05-07T00:19:05;100788.34;;;21.58;100.00
42621;BME280;28252;53.336;-6.298;2023-05-07T00:19:36;100786.69;;;21.57;100.00
42621;BME280;28252;53.336;-6.298;2023-05-07T00:20:10;100782.91;;;21.58;100.00
42621;BME280;28252;53.336;-6.298;2023-05-07T00:20:43;100787.34;;;21.59;100.00
42621;BME280;28252;53.336;-6.298;2023-05-07T00:21:16;100791.88;;;21.59;100.00
42621;BME280;28252;53.336;-6.298;2023-05-07T00:21:50;100788.16;;;21.60;100.00
42621;BME280;28252;53.336;-6.298;2023-05-07T00:22:23;100786.47;;;21.59;100.00
42621;BME280;28252;53.336;-6.298;2023-05-07T00:22:56;100791.88;;;21.59;100.00
42621;BME280;28252;53.336;-6.298;2023-05-07T00:23:29;100787.34;;;21.59;100.00
42621;BME280;28252;53.336;-6.298;2023-05-07T00:24:02;100797.31;;;21.59;100.00
42621;BME280;28252;53.336;-6.298;2023-05-07T00:24:36;100794.81;;;21.57;100.00
42621;BME280;28252;53.336;-6.298;2023-05-07T00:25:11;100790.22;;;21.58;100.00
42621;BME280;28252;53.336;-6.298;2023-05-07T00:25:44;100795.63;;;21.58;100.00
42621;BME280;28252;53.336;-6.298;2023-05-07T00:26:23;100799.19;;;21.58;100.00
42621;BME280;28252;53.336;-6.298;2023-05-07T00:26:57;100799.34;;;21.57;100.00
42621;BME280;28252;53.336;-6.298;2023-05-07T00:27:28;100802.94;;;21.57;100.00
42621;BME280;28252;53.336;-6.298;2023-05-07T00:28:06;100798.69;;;21.55;100.00
42621;BME280;28252;53.336;-6.298;2023-05-07T00:28:42;100803.09;;;21.56;100.00
42621;BME280;28252;53.336;-6.298;2023-05-07T00:29:16;100799.53;;;21.55;100.00
42621;BME280;28252;53.336;-6.298;2023-05-07T00:29:47;100800.56;;;21.54;100.00
42621;BME280;28252;53.336;-6.298;2023-05-07T00:30:20;100796.00;;;21.55;100.00
42621;BME280;28252;53.336;-6.298;2023-05-07T00:30:53;100798.03;;;21.53;100.00
42621;BME280;28252;53.336;-6.298;2023-05-07T00:31:26;100796.34;;;21.52;100.00
42621;BME280;28252;53.336;-6.298;2023-05-07T00:31:59;100801.75;;;21.52;100.00
42621;BME280;28252;53.336;-6.298;2023-05-07T00:32:32;100801.59;;;21.53;100.00
42621;BME280;28252;53.336;-6.298;2023-05-07T00:33:11;100797.19;;;21.52;100.00
42621;BME280;28252;53.336;-6.298;2023-05-07T00:33:44;100799.69;;;21.54;100.00
42621;BME280;28252;53.336;-6.298;2023-05-07T00:34:16;100803.47;;;21.53;100.00
42621;BME280;28252;53.336;-6.298;2023-05-07T00:34:49;100803.47;;;21.53;100.00
42621;BME280;28252;53.336;-6.298;2023-05-07T00:35:21;100803.47;;;21.53;100.00
42621;BME280;28252;53.336;-6.298;2023-05-07T00:35:57;100802.78;;;21.51;100.00
42621;BME280;28252;53.336;-6.298;2023-05-07T00:36:32;100801.94;;;21.50;100.00
42621;BME280;28252;53.336;-6.298;2023-05-07T00:37:06;100799.38;;;21.49;100.00
42621;BME280;28252;53.336;-6.298;2023-05-07T00:37:43;100798.38;;;21.50;100.00
42621;BME280;28252;53.336;-6.298;2023-05-07T00:38:16;100797.53;;;21.49;100.00
42621;BME280;28252;53.336;-6.298;2023-05-07T00:39:29;100794.84;;;21.49;100.00
42621;BME280;28252;53.336;-6.298;2023-05-07T00:40:05;100802.97;;;21.49;100.00
42621;BME280;28252;53.336;-6.298;2023-05-07T00:40:43;100804.81;;;21.49;100.00
42621;BME280;28252;53.336;-6.298;2023-05-07T00:41:21;100804.81;;;21.49;100.00
42621;BME280;28252;53.336;-6.298;2023-05-07T00:41:52;100812.09;;;21.48;100.00
42621;BME280;28252;53.336;-6.298;2023-05-07T00:42:27;100805.84;;;21.48;100.00
42621;BME280;28252;53.336;-6.298;2023-05-07T00:42:58;100802.09;;;21.49;100.00
42621;BME280;28252;53.336;-6.298;2023-05-07T00:43:32;100800.44;;;21.48;100.00
42621;BME280;28252;53.336;-6.298;2023-05-07T00:44:08;100802.09;;;21.49;100.00
42621;BME280;28252;53.336;-6.298;2023-05-07T00:44:39;100797.53;;;21.49;100.00
42621;BME280;28252;53.336;-6.298;2023-05-07T00:45:17;100803.13;;;21.48;100.00
42621;BME280;28252;53.336;-6.298;2023-05-07T00:45:51;100803.13;;;21.48;100.00
42621;BME280;28252;53.336;-6.298;2023-05-07T00:46:24;100807.53;;;21.49;100.00
42621;BME280;28252;53.336;-6.298;2023-05-07T00:46:56;100805.84;;;21.48;100.00
42621;BME280;28252;53.336;-6.298;2023-05-07T00:47:32;100806.00;;;21.46;100.00
42621;BME280;28252;53.336;-6.298;2023-05-07T00:48:11;100804.16;;;21.47;100.00
42621;BME280;28252;53.336;-6.298;2023-05-07T00:48:46;100805.16;;;21.45;100.00
42621;BME280;28252;53.336;-6.298;2023-05-07T00:49:25;100801.44;;;21.47;100.00
42621;BME280;28252;53.336;-6.298;2023-05-07T00:50:08;100807.88;;;21.45;100.00
42621;BME280;28252;53.336;-6.298;2023-05-07T00:50:40;100806.16;;;21.44;100.00
42621;BME280;28252;53.336;-6.298;2023-05-07T00:51:14;100806.16;;;21.44;100.00
42621;BME280;28252;53.336;-6.298;2023-05-07T00:51:47;100811.59;;;21.44;100.00
42621;BME280;28252;53.336;-6.298;2023-05-07T00:52:21;100808.03;;;21.44;100.00
42621;BME280;28252;53.336;-6.298;2023-05-07T00:52:59;100807.00;;;21.45;100.00
42621;BME280;28252;53.336;-6.298;2023-05-07T00:53:33;100805.31;;;21.44;100.00
42621;BME280;28252;53.336;-6.298;2023-05-07T00:54:06;100810.75;;;21.44;100.00
42621;BME280;28252;53.336;-6.298;2023-05-07T00:54:40;100809.88;;;21.43;100.00
42621;BME280;28252;53.336;-6.298;2023-05-07T00:55:15;100807.16;;;21.43;100.00
42621;BME280;28252;53.336;-6.298;2023-05-07T00:55:51;100811.75;;;21.43;100.00
42621;BME280;28252;53.336;-6.298;2023-05-07T00:56:26;100802.78;;;21.42;100.00
42621;BME280;28252;53.336;-6.298;2023-05-07T00:57:00;100810.75;;;21.44;100.00
42621;BME280;28252;53.336;-6.298;2023-05-07T00:57:37;100806.34;;;21.43;100.00
42621;BME280;28252;53.336;-6.298;2023-05-07T00:58:12;100808.22;;;21.42;100.00
42621;BME280;28252;53.336;-6.298;2023-05-07T00:58:45;100807.16;;;21.43;100.00
42621;BME280;28252;53.336;-6.298;2023-05-07T00:59:19;100804.66;;;21.42;100.00
42621;BME280;28252;53.336;-6.298;2023-05-07T01:08:01;100810.59;;;21.37;100.00
42621;BME280;28252;53.336;-6.298;2023-05-07T01:08:37;100810.59;;;21.37;100.00
42621;BME280;28252;53.336;-6.298;2023-05-07T01:09:10;100808.72;;;21.38;100.00
42621;BME280;28252;53.336;-6.298;2023-05-07T01:09:46;100810.59;;;21.37;100.00
42621;BME280;28252;53.336;-6.298;2023-05-07T01:10:20;100807.91;;;21.37;100.00
42621;BME280;28252;53.336;-6.298;2023-05-07T01:10:54;100814.16;;;21.38;100.00
42621;BME280;28252;53.336;-6.298;2023-05-07T01:11:30;100811.59;;;21.36;100.00
42621;BME280;28252;53.336;-6.298;2023-05-07T01:12:03;100808.91;;;21.36;100.00
42621;BME280;28252;53.336;-6.298;2023-05-07T01:12:41;100808.06;;;21.36;100.00
42621;BME280;28252;53.336;-6.298;2023-05-07T01:13:15;100812.66;;;21.35;100.00
42621;BME280;28252;53.336;-6.298;2023-05-07T01:13:46;100807.22;;;21.35;100.00
42621;BME280;28252;53.336;-6.298;2023-05-07T01:14:18;100802.66;;;21.36;100.00
42621;BME280;28252;53.336;-6.298;2023-05-07T01:14:55;100794.69;;;21.34;100.00
42621;BME280;28252;53.336;-6.298;2023-05-07T01:16:17;100802.81;;;21.34;100.00
42621;BME280;28252;53.336;-6.298;2023-05-07T01:16:51;100805.53;;;21.34;100.00
42621;BME280;28252;53.336;-6.298;2023-05-07T01:17:24;100804.00;;;21.32;100.00
42621;BME280;28252;53.336;-6.298;2023-05-07T01:18:02;100804.88;;;21.32;100.00
42621;BME280;28252;53.336;-6.298;2023-05-07T01:18:38;100804.88;;;21.32;100.00
42621;BME280;28252;53.336;-6.298;2023-05-07T01:19:11;100800.44;;;21.31;100.00
42621;BME280;28252;53.336;-6.298;2023-05-07T01:19:47;100804.19;;;21.30;100.00
42621;BME280;28252;53.336;-6.298;2023-05-07T01:20:19;100799.97;;;21.27;100.00
42621;BME280;28252;53.336;-6.298;2023-05-07T01:20:59;100807.09;;;21.29;100.00
42621;BME280;28252;53.336;-6.298;2023-05-07T01:21:34;100806.03;;;21.30;100.00
42621;BME280;28252;53.336;-6.298;2023-05-07T01:22:10;100805.22;;;21.29;100.00
42621;BME280;28252;53.336;-6.298;2023-05-07T01:22:56;100805.22;;;21.29;100.00
42621;BME280;28252;53.336;-6.298;2023-05-07T01:23:32;100810.63;;;21.29;100.00
42621;BME280;28252;53.336;-6.298;2023-05-07T01:24:04;100808.75;;;21.30;100.00
42621;BME280;28252;53.336;-6.298;2023-05-07T01:24:36;100812.50;;;21.29;100.00
42621;BME280;28252;53.336;-6.298;2023-05-07T01:25:11;100811.63;;;21.28;100.00
42621;BME280;28252;53.336;-6.298;2023-05-07T01:25:51;100809.97;;;21.27;100.00
42621;BME280;28252;53.336;-6.298;2023-05-07T01:26:28;100809.97;;;21.27;100.00
42621;BME280;28252;53.336;-6.298;2023-05-07T01:26:59;100819.75;;;21.28;100.00
42621;BME280;28252;53.336;-6.298;2023-05-07T01:27:35;100815.38;;;21.27;100.00
42621;BME280;28252;53.336;-6.298;2023-05-07T01:28:08;100815.38;;;21.27;100.00
42621;BME280;28252;53.336;-6.298;2023-05-07T01:28:42;100818.94;;;21.27;100.00
42621;BME280;28252;53.336;-6.298;2023-05-07T01:29:15;100816.22;;;21.27;100.00
42621;BME280;28252;53.336;-6.298;2023-05-07T01:29:50;100820.81;;;21.27;100.00
42621;BME280;28252;53.336;-6.298;2023-05-07T01:30:28;100824.50;;;21.26;100.00
42621;BME280;28252;53.336;-6.298;2023-05-07T01:31:04;100817.44;;;21.25;100.00
42621;BME280;28252;53.336;-6.298;2023-05-07T01:31:39;100821.16;;;21.24;100.00
42621;BME280;28252;53.336;-6.298;2023-05-07T01:32:13;100817.44;;;21.25;100.00
42621;BME280;28252;53.336;-6.298;2023-05-07T01:33:32;100812.84;;;21.25;100.00
42621;BME280;28252;53.336;-6.298;2023-05-07T01:34:09;100822.66;;;21.26;100.00
42621;BME280;28252;53.336;-6.298;2023-05-07T01:34:46;100810.97;;;21.26;100.00
42621;BME280;28252;53.336;-6.298;2023-05-07T01:35:24;100814.50;;;21.26;100.00
42621;BME280;28252;53.336;-6.298;2023-05-07T01:36:01;100815.56;;;21.25;100.00
42621;BME280;28252;53.336;-6.298;2023-05-07T01:36:40;100819.09;;;21.26;100.00
42621;BME280;28252;53.336;-6.298;2023-05-07T01:37:14;100815.38;;;21.27;100.00
42621;BME280;28252;53.336;-6.298;2023-05-07T01:37:48;100815.38;;;21.27;100.00
42621;BME280;28252;53.336;-6.298;2023-05-07T01:38:22;100815.38;;;21.27;100.00
42621;BME280;28252;53.336;-6.298;2023-05-07T01:38:56;100811.13;;;21.24;100.00
42621;BME280;28252;53.336;-6.298;2023-05-07T01:39:31;100816.56;;;21.24;100.00
42621;BME280;28252;53.336;-6.298;2023-05-07T01:40:05;100812.00;;;21.25;100.00
42621;BME280;28252;53.336;-6.298;2023-05-07T01:40:37;100814.72;;;21.25;100.00
42621;BME280;28252;53.336;-6.298;2023-05-07T01:41:14;100812.84;;;21.25;100.00
42621;BME280;28252;53.336;-6.298;2023-05-07T01:41:50;100810.97;;;21.26;100.00
42621;BME280;28252;53.336;-6.298;2023-05-07T01:42:25;100822.66;;;21.26;100.00
42621;BME280;28252;53.336;-6.298;2023-05-07T01:42:59;100817.22;;;21.26;100.00
42621;BME280;28252;53.336;-6.298;2023-05-07T01:43:49;100822.84;;;21.25;100.00
42621;BME280;28252;53.336;-6.298;2023-05-07T01:44:20;100816.72;;;21.23;100.00
42621;BME280;28252;53.336;-6.298;2023-05-07T01:44:54;100824.84;;;21.23;100.00
42621;BME280;28252;53.336;-6.298;2023-05-07T01:45:30;100823.03;;;21.23;100.00
42621;BME280;28252;53.336;-6.298;2023-05-07T01:46:05;100817.59;;;21.23;100.00
42621;BME280;28252;53.336;-6.298;2023-05-07T01:46:40;100826.56;;;21.24;100.00
42621;BME280;28252;53.336;-6.298;2023-05-07T01:47:15;100815.72;;;21.24;100.00
42621;BME280;28252;53.336;-6.298;2023-05-07T01:47:47;100821.97;;;21.24;100.00
42621;BME280;28252;53.336;-6.298;2023-05-07T01:48:21;100815.72;;;21.24;100.00
42621;BME280;28252;53.336;-6.298;2023-05-07T01:48:54;100824.03;;;21.22;100.00
42621;BME280;28252;53.336;-6.298;2023-05-07T01:49:29;100818.59;;;21.22;100.00
42621;BME280;28252;53.336;-6.298;2023-05-07T01:50:01;100814.03;;;21.23;100.00
42621;BME280;28252;53.336;-6.298;2023-05-07T01:50:32;100819.44;;;21.23;100.00
42621;BME280;28252;53.336;-6.298;2023-05-07T01:51:08;100822.31;;;21.21;100.00
42621;BME280;28252;53.336;-6.298;2023-05-07T01:51:42;100822.53;;;21.20;100.00
42621;BME280;28252;53.336;-6.298;2023-05-07T01:52:18;100824.19;;;21.21;100.00
42621;BME280;28252;53.336;-6.298;2023-05-07T01:52:52;100813.34;;;21.21;100.00
42621;BME280;28252;53.336;-6.298;2023-05-07T01:53:25;100824.38;;;21.19;100.00
42621;BME280;28252;53.336;-6.298;2023-05-07T01:54:02;100814.56;;;21.18;100.00
42621;BME280;28252;53.336;-6.298;2023-05-07T01:54:33;100821.81;;;21.18;100.00
42621;BME280;28252;53.336;-6.298;2023-05-07T01:55:07;100818.28;;;21.17;100.00
42621;BME280;28252;53.336;-6.298;2023-05-07T01:55:41;100825.56;;;21.17;100.00
42621;BME280;28252;53.336;-6.298;2023-05-07T01:56:16;100820.16;;;21.17;100.00
42621;BME280;28252;53.336;-6.298;2023-05-07T01:56:52;100820.16;;;21.17;100.00
42621;BME280;28252;53.336;-6.298;2023-05-07T01:57:26;100825.56;;;21.17;100.00
42621;BME280;28252;53.336;-6.298;2023-05-07T01:57:59;100825.56;;;21.17;100.00
42621;BME280;28252;53.336;-6.298;2023-05-07T01:58:34;100827.25;;;21.18;100.00
42621;BME280;28252;53.336;-6.298;2023-05-07T01:59:10;100827.25;;;21.18;100.00
42621;BME280;28252;53.336;-6.298;2023-05-07T01:59:45;100826.41;;;21.17;100.00
42621;BME280;28252;53.336;-6.298;2023-05-07T02:00:16;100827.25;;;21.18;100.00
42621;BME280;28252;53.336;-6.298;2023-05-07T02:00:49;100829.13;;;21.17;100.00
42621;BME280;28252;53.336;-6.298;2023-05-07T02:01:20;100828.94;;;21.19;100.00
42621;BME280;28252;53.336;-6.298;2023-05-07T02:01:54;100828.09;;;21.18;100.00
42621;BME280;28252;53.336;-6.298;2023-05-07T02:02:30;100829.78;;;21.19;100.00
42621;BME280;28252;53.336;-6.298;2023-05-07T02:03:04;100834.38;;;21.19;100.00
42621;BME280;28252;53.336;-6.298;2023-05-07T02:03:55;100832.66;;;21.18;100.00
42621;BME280;28252;53.336;-6.298;2023-05-07T02:04:30;100826.41;;;21.17;100.00
42621;BME280;28252;53.336;-6.298;2023-05-07T02:05:03;100836.41;;;21.17;100.00
42621;BME280;28252;53.336;-6.298;2023-05-07T02:05:36;100830.31;;;21.15;100.00
42621;BME280;28252;53.336;-6.298;2023-05-07T02:06:21;100833.03;;;21.15;100.00
42621;BME280;28252;53.336;-6.298;2023-05-07T02:06:59;100842.16;;;21.14;100.00
42621;BME280;28252;53.336;-6.298;2023-05-07T02:07:32;100838.44;;;21.15;100.00
42621;BME280;28252;53.336;-6.298;2023-05-07T02:11:52;100842.16;;;21.14;100.00
42621;BME280;28252;53.336;-6.298;2023-05-07T02:12:24;100833.03;;;21.15;100.00
42621;BME280;28252;53.336;-6.298;2023-05-07T02:12:57;100837.59;;;21.14;100.00
42621;BME280;28252;53.336;-6.298;2023-05-07T02:13:35;100843.00;;;21.14;100.00
42621;BME280;28252;53.336;-6.298;2023-05-07T02:14:08;100836.75;;;21.14;100.00
42621;BME280;28252;53.336;-6.298;2023-05-07T02:14:39;100834.22;;;21.12;100.00
42621;BME280;28252;53.336;-6.298;2023-05-07T02:15:10;100841.31;;;21.13;100.00
42621;BME280;28252;53.336;-6.298;2023-05-07T02:15:41;100846.03;;;21.11;100.00
42621;BME280;28252;53.336;-6.298;2023-05-07T02:16:12;100845.88;;;21.13;100.00
42621;BME280;28252;53.336;-6.298;2023-05-07T02:16:48;100841.50;;;21.12;100.00
42621;BME280;28252;53.336;-6.298;2023-05-07T02:17:22;100837.75;;;21.13;100.00
42621;BME280;28252;53.336;-6.298;2023-05-07T02:18:37;100845.88;;;21.13;100.00
42621;BME280;28252;53.336;-6.298;2023-05-07T02:19:08;100844.22;;;21.12;100.00
42621;BME280;28252;53.336;-6.298;2023-05-07T02:19:44;100844.22;;;21.12;100.00
42621;BME280;28252;53.336;-6.298;2023-05-07T02:20:15;100836.09;;;21.12;100.00
42621;BME280;28252;53.336;-6.298;2023-05-07T02:20:51;100839.63;;;21.12;100.00
42621;BME280;28252;53.336;-6.298;2023-05-07T02:21:25;100843.16;;;21.13;100.00
42621;BME280;28252;53.336;-6.298;2023-05-07T02:21:58;100835.22;;;21.11;100.00
42621;BME280;28252;53.336;-6.298;2023-05-07T02:22:34;100837.09;;;21.11;100.00
42621;BME280;28252;53.336;-6.298;2023-05-07T02:23:05;100838.78;;;21.12;100.00
42621;BME280;28252;53.336;-6.298;2023-05-07T02:23:38;100836.09;;;21.12;100.00
42621;BME280;28252;53.336;-6.298;2023-05-07T02:24:11;100838.78;;;21.12;100.00
42621;BME280;28252;53.336;-6.298;2023-05-07T02:26:06;100839.13;;;21.08;100.00
42621;BME280;28252;53.336;-6.298;2023-05-07T02:26:37;100839.97;;;21.09;100.00
42621;BME280;28252;53.336;-6.298;2023-05-07T02:27:09;100833.72;;;21.08;100.00
42621;BME280;28252;53.336;-6.298;2023-05-07T02:27:40;100835.41;;;21.10;100.00
42621;BME280;28252;53.336;-6.298;2023-05-07T02:28:19;100840.84;;;21.10;100.00
42621;BME280;28252;53.336;-6.298;2023-05-07T02:28:56;100828.28;;;21.08;100.00
42621;BME280;28252;53.336;-6.298;2023-05-07T02:29:30;100839.13;;;21.08;100.00
42621;BME280;28252;53.336;-6.298;2023-05-07T02:30:01;100837.44;;;21.07;100.00
42621;BME280;28252;53.336;-6.298;2023-05-07T02:30:37;100833.03;;;21.06;100.00
42621;BME280;28252;53.336;-6.298;2023-05-07T02:31:16;100842.84;;;21.07;100.00
42621;BME280;28252;53.336;-6.298;2023-05-07T02:31:49;100832.00;;;21.07;100.00
42621;BME280;28252;53.336;-6.298;2023-05-07T02:32:24;100830.34;;;21.06;100.00
42621;BME280;28252;53.336;-6.298;2023-05-07T02:32:55;100835.59;;;21.08;100.00
42621;BME280;28252;53.336;-6.298;2023-05-07T02:33:26;100835.75;;;21.06;100.00
42621;BME280;28252;53.336;-6.298;2023-05-07T02:34:00;100835.75;;;21.06;100.00
42621;BME280;28252;53.336;-6.298;2023-05-07T02:34:36;100841.16;;;21.06;100.00
42621;BME280;28252;53.336;-6.298;2023-05-07T02:35:08;100837.78;;;21.04;100.00
42621;BME280;28252;53.336;-6.298;2023-05-07T02:35:39;100836.94;;;21.04;100.00
42621;BME280;28252;53.336;-6.298;2023-05-07T02:36:16;100837.78;;;21.04;100.00
42621;BME280;28252;53.336;-6.298;2023-05-07T02:37:04;100835.94;;;21.05;100.00
42621;BME280;28252;53.336;-6.298;2023-05-07T02:37:38;100837.78;;;21.04;100.00
42621;BME280;28252;53.336;-6.298;2023-05-07T02:38:09;100843.22;;;21.04;100.00
42621;BME280;28252;53.336;-6.298;2023-05-07T02:38:46;100840.50;;;21.04;100.00
42621;BME280;28252;53.336;-6.298;2023-05-07T02:39:17;100825.25;;;21.03;100.00
42621;BME280;28252;53.336;-6.298;2023-05-07T02:39:54;100831.50;;;21.04;100.00
42621;BME280;28252;53.336;-6.298;2023-05-07T02:40:26;100833.22;;;21.05;100.00
42621;BME280;28252;53.336;-6.298;2023-05-07T02:40:59;100836.75;;;21.05;100.00
42621;BME280;28252;53.336;-6.298;2023-05-07T02:41:29;100829.47;;;21.06;100.00
42621;BME280;28252;53.336;-6.298;2023-05-07T02:42:03;100835.75;;;21.06;100.00
42621;BME280;28252;53.336;-6.298;2023-05-07T02:42:38;100838.63;;;21.05;100.00
42621;BME280;28252;53.336;-6.298;2023-05-07T02:43:15;100836.94;;;21.04;100.00
42621;BME280;28252;53.336;-6.298;2023-05-07T02:43:51;100829.84;;;21.03;100.00
42621;BME280;28252;53.336;-6.298;2023-05-07T02:44:27;100834.38;;;21.02;100.00
42621;BME280;28252;53.336;-6.298;2023-05-07T02:45:06;100832.56;;;21.03;100.00
42621;BME280;28252;53.336;-6.298;2023-05-07T02:45:42;100828.97;;;21.02;100.00
42621;BME280;28252;53.336;-6.298;2023-05-07T02:46:16;100836.44;;;21.00;100.00
42621;BME280;28252;53.336;-6.298;2023-05-07T02:47:01;100832.72;;;21.01;100.00
42621;BME280;28252;53.336;-6.298;2023-05-07T02:47:35;100828.97;;;21.02;100.00
42621;BME280;28252;53.336;-6.298;2023-05-07T02:48:07;100838.13;;;21.01;100.00
42621;BME280;28252;53.336;-6.298;2023-05-07T02:48:42;100828.13;;;21.02;100.00
42621;BME280;28252;53.336;-6.298;2023-05-07T02:49:16;100834.38;;;21.02;100.00
42621;BME280;28252;53.336;-6.298;2023-05-07T02:49:49;100837.09;;;21.02;100.00
42621;BME280;28252;53.336;-6.298;2023-05-07T02:50:20;100839.13;;;21.00;100.00
42621;BME280;28252;53.336;-6.298;2023-05-07T02:50:58;100836.44;;;21.00;100.00
42621;BME280;28252;53.336;-6.298;2023-05-07T02:51:32;100836.44;;;21.00;100.00
42621;BME280;28252;53.336;-6.298;2023-05-07T02:52:06;100832.72;;;21.01;100.00
42621;BME280;28252;53.336;-6.298;2023-05-07T02:52:39;100834.72;;;20.99;100.00
42621;BME280;28252;53.336;-6.298;2023-05-07T02:53:13;100836.44;;;21.00;100.00
42621;BME280;28252;53.336;-6.298;2023-05-07T02:53:48;100836.44;;;21.00;100.00
42621;BME280;28252;53.336;-6.298;2023-05-07T02:54:19;100836.44;;;21.00;100.00
42621;BME280;28252;53.336;-6.298;2023-05-07T02:54:53;100828.47;;;20.99;100.00
42621;BME280;28252;53.336;-6.298;2023-05-07T02:55:29;100840.16;;;20.99;100.00
42621;BME280;28252;53.336;-6.298;2023-05-07T02:56:17;100837.44;;;20.99;100.00
42621;BME280;28252;53.336;-6.298;2023-05-07T02:56:51;100836.78;;;20.97;100.00
42621;BME280;28252;53.336;-6.298;2023-05-07T02:57:22;100837.81;;;20.96;100.00
42621;BME280;28252;53.336;-6.298;2023-05-07T02:57:55;100841.53;;;20.95;100.00
42621;BME280;28252;53.336;-6.298;2023-05-07T02:58:29;100839.66;;;20.96;100.00
42621;BME280;28252;53.336;-6.298;2023-05-07T02:59:01;100832.38;;;20.96;100.00
42621;BME280;28252;53.336;-6.298;2023-05-07T02:59:37;100834.22;;;20.96;100.00
42621;BME280;28252;53.336;-6.298;2023-05-07T03:00:14;100836.09;;;20.95;100.00
42621;BME280;28252;53.336;-6.298;2023-05-07T03:00:53;100832.38;;;20.96;100.00
42621;BME280;28252;53.336;-6.298;2023-05-07T03:01:44;100835.09;;;20.96;100.00
42621;BME280;28252;53.336;-6.298;2023-05-07T03:02:19;100837.97;;;20.95;100.00
42621;BME280;28252;53.336;-6.298;2023-05-07T03:02:57;100837.09;;;20.94;100.00
42621;BME280;28252;53.336;-6.298;2023-05-07T03:03:33;100830.03;;;20.93;100.00
42621;BME280;28252;53.336;-6.298;2023-05-07T03:04:06;100831.69;;;20.94;100.00
42621;BME280;28252;53.336;-6.298;2023-05-07T03:04:42;100837.09;;;20.94;100.00
42621;BME280;28252;53.336;-6.298;2023-05-07T03:05:13;100832.91;;;20.92;100.00
42621;BME280;28252;53.336;-6.298;2023-05-07T03:14:49;100841.53;;;20.87;100.00
42621;BME280;28252;53.336;-6.298;2023-05-07T03:15:25;100845.94;;;20.88;100.00
42621;BME280;28252;53.336;-6.298;2023-05-07T03:16:03;100848.66;;;20.88;100.00
42621;BME280;28252;53.336;-6.298;2023-05-07T03:16:34;100848.81;;;20.86;100.00
42621;BME280;28252;53.336;-6.298;2023-05-07T03:17:13;100845.28;;;20.86;100.00
42621;BME280;28252;53.336;-6.298;2023-05-07T03:17:46;100850.69;;;20.86;100.00
42621;BME280;28252;53.336;-6.298;2023-05-07T03:18:20;100851.53;;;20.86;100.00
42621;BME280;28252;53.336;-6.298;2023-05-07T03:18:51;100848.16;;;20.84;100.00
42621;BME280;28252;53.336;-6.298;2023-05-07T03:19:27;100854.41;;;20.85;100.00
42621;BME280;28252;53.336;-6.298;2023-05-07T03:20:01;100856.94;;;20.86;100.00
42621;BME280;28252;53.336;-6.298;2023-05-07T03:20:34;100855.06;;;20.87;100.00
42621;BME280;28252;53.336;-6.298;2023-05-07T03:21:10;100853.22;;;20.87;100.00
42621;BME280;28252;53.336;-6.298;2023-05-07T03:21:48;100855.06;;;20.87;100.00